sensor_id;sensor_type;location;lat;lon;timestamp;temperature;humidity
5697;DHT22;2873;50.966;7.210;2023-04-25T00:01:46;9.10;99.90
5697;DHT22;2873;50.966;7.210;2023-04-25T00:04:11;9.10;99.90
5697;DHT22;2873;50.966;7.210;2023-04-25T00:06:37;9.10;99.90
5697;DHT22;2873;50.966;7.210;2023-04-25T00:09:06;9.10;99.90
5697;DHT22;2873;50.966;7.210;2023-04-25T00:11:35;9.10;99.90
5697;DHT22;2873;50.966;7.210;2023-04-25T00:14:02;9.00;99.90
5697;DHT22;2873;50.966;7.210;2023-04-25T00:16:28;9.00;99.90
5697;DHT22;2873;50.966;7.210;2023-04-25T00:18:55;9.00;99.90
5697;DHT22;2873;50.966;7.210;2023-04-25T00:21:22;9.00;99.90
5697;DHT22;2873;50.966;7.210;2023-04-25T00:23:49;8.90;99.90
5697;DHT22;2873;50.966;7.210;2023-04-25T00:26:15;8.90;99.90
5697;DHT22;2873;50.966;7.210;2023-04-25T00:28:41;8.90;99.90
5697;DHT22;2873;50.966;7.210;2023-04-25T00:31:06;8.90;99.90
5697;DHT22;2873;50.966;7.210;2023-04-25T00:33:32;8.90;99.90
5697;DHT22;2873;50.966;7.210;2023-04-25T00:35:58;8.80;99.90
5697;DHT22;2873;50.966;7.210;2023-04-25T00:38:24;8.80;99.90
5697;DHT22;2873;50.966;7.210;2023-04-25T00:40:49;8.70;99.90
5697;DHT22;2873;50.966;7.210;2023-04-25T00:43:15;8.70;99.90
5697;DHT22;2873;50.966;7.210;2023-04-25T00:45:43;8.70;99.90
5697;DHT22;2873;50.966;7.210;2023-04-25T00:48:08;8.70;99.90
5697;DHT22;2873;50.966;7.210;2023-04-25T00:50:35;8.60;99.90
5697;DHT22;2873;50.966;7.210;2023-04-25T00:53:02;8.60;99.90
5697;DHT22;2873;50.966;7.210;2023-04-25T00:55:29;8.50;99.90
5697;DHT22;2873;50.966;7.210;2023-04-25T00:57:57;8.50;99.90
5697;DHT22;2873;50.966;7.210;2023-04-25T01:00:22;8.50;99.90
5697;DHT22;2873;50.966;7.210;2023-04-25T01:02:48;8.50;99.90
5697;DHT22;2873;50.966;7.210;2023-04-25T01:05:13;8.40;99.90
5697;DHT22;2873;50.966;7.210;2023-04-25T01:07:39;8.40;99.90
5697;DHT22;2873;50.966;7.210;2023-04-25T01:10:06;8.40;99.90
5697;DHT22;2873;50.966;7.210;2023-04-25T01:12:33;8.40;99.90
5697;DHT22;2873;50.966;7.210;2023-04-25T01:14:58;8.30;99.90
5697;DHT22;2873;50.966;7.210;2023-04-25T01:17:24;8.30;99.90
5697;DHT22;2873;50.966;7.210;2023-04-25T01:19:50;8.20;99.90
5697;DHT22;2873;50.966;7.210;2023-04-25T01:22:16;8.20;99.90
5697;DHT22;2873;50.966;7.210;2023-04-25T01:24:42;8.20;99.90
5697;DHT22;2873;50.966;7.210;2023-04-25T01:27:08;8.30;99.90
5697;DHT22;2873;50.966;7.210;2023-04-25T01:29:35;8.20;99.90
5697;DHT22;2873;50.966;7.210;2023-04-25T01:32:01;8.20;99.90
5697;DHT22;2873;50.966;7.210;2023-04-25T01:34:27;8.20;99.90
5697;DHT22;2873;50.966;7.210;2023-04-25T01:36:53;8.30;99.90
5697;DHT22;2873;50.966;7.210;2023-04-25T01:39:19;8.20;99.90
5697;DHT22;2873;50.966;7.210;2023-04-25T01:41:46;8.30;99.90
5697;DHT22;2873;50.966;7.210;2023-04-25T01:44:12;8.30;99.90
5697;DHT22;2873;50.966;7.210;2023-04-25T01:46:38;8.30;99.90
5697;DHT22;2873;50.966;7.210;2023-04-25T01:49:04;8.30;99.90
5697;DHT22;2873;50.966;7.210;2023-04-25T01:51:30;8.30;99.90
5697;DHT22;2873;50.966;7.210;2023-04-25T01:53:57;8.30;99.90
5697;DHT22;2873;50.966;7.210;2023-04-25T01:56:23;8.40;99.90
5697;DHT22;2873;50.966;7.210;2023-04-25T01:58:48;8.40;99.90
5697;DHT22;2873;50.966;7.210;2023-04-25T02:01:14;8.30;99.90
5697;DHT22;2873;50.966;7.210;2023-04-25T02:03:40;8.30;99.90
5697;DHT22;2873;50.966;7.210;2023-04-25T02:06:05;8.30;99.90
5697;DHT22;2873;50.966;7.210;2023-04-25T02:08:31;8.30;99.90
5697;DHT22;2873;50.966;7.210;2023-04-25T02:10:57;8.30;99.90
5697;DHT22;2873;50.966;7.210;2023-04-25T02:13:23;8.40;99.90
5697;DHT22;2873;50.966;7.210;2023-04-25T02:15:48;8.40;99.90
5697;DHT22;2873;50.966;7.210;2023-04-25T02:18:14;8.30;99.90
5697;DHT22;2873;50.966;7.210;2023-04-25T02:20:42;8.30;99.90
5697;DHT22;2873;50.966;7.210;2023-04-25T02:23:07;8.30;99.90
5697;DHT22;2873;50.966;7.210;2023-04-25T02:25:33;8.30;99.90
5697;DHT22;2873;50.966;7.210;2023-04-25T02:27:58;8.30;99.90
5697;DHT22;2873;50.966;7.210;2023-04-25T02:30:24;8.30;99.90
5697;DHT22;2873;50.966;7.210;2023-04-25T02:32:50;8.30;99.90
5697;DHT22;2873;50.966;7.210;2023-04-25T02:35:15;8.20;99.90
5697;DHT22;2873;50.966;7.210;2023-04-25T02:37:42;8.20;99.90
5697;DHT22;2873;50.966;7.210;2023-04-25T02:40:08;8.10;99.90
5697;DHT22;2873;50.966;7.210;2023-04-25T02:42:34;8.20;99.90
5697;DHT22;2873;50.966;7.210;2023-04-25T02:45:00;8.10;99.90
5697;DHT22;2873;50.966;7.210;2023-04-25T02:47:25;8.20;99.90
5697;DHT22;2873;50.966;7.210;2023-04-25T02:49:51;8.20;99.90
5697;DHT22;2873;50.966;7.210;2023-04-25T02:52:17;8.20;99.90
5697;DHT22;2873;50.966;7.210;2023-04-25T02:54:42;8.20;99.90
5697;DHT22;2873;50.966;7.210;2023-04-25T02:57:08;8.20;99.90
5697;DHT22;2873;50.966;7.210;2023-04-25T02:59:34;8.20;99.90
5697;DHT22;2873;50.966;7.210;2023-04-25T03:02:00;8.20;99.90
5697;DHT22;2873;50.966;7.210;2023-04-25T03:04:26;8.20;99.90
5697;DHT22;2873;50.966;7.210;2023-04-25T03:06:52;8.20;99.90
5697;DHT22;2873;50.966;7.210;2023-04-25T03:09:18;8.20;99.90
5697;DHT22;2873;50.966;7.210;2023-04-25T03:11:45;8.20;99.90
5697;DHT22;2873;50.966;7.210;2023-04-25T03:14:11;8.20;99.90
5697;DHT22;2873;50.966;7.210;2023-04-25T03:16:36;8.20;99.90
5697;DHT22;2873;50.966;7.210;2023-04-25T03:19:03;8.20;99.90
5697;DHT22;2873;50.966;7.210;2023-04-25T03:21:29;8.20;99.90
5697;DHT22;2873;50.966;7.210;2023-04-25T03:23:57;8.30;99.90
5697;DHT22;2873;50.966;7.210;2023-04-25T03:26:22;8.30;99.90
5697;DHT22;2873;50.966;7.210;2023-04-25T03:28:48;8.30;99.90
5697;DHT22;2873;50.966;7.210;2023-04-25T03:31:13;8.30;99.90
5697;DHT22;2873;50.966;7.210;2023-04-25T03:33:40;8.40;99.90
5697;DHT22;2873;50.966;7.210;2023-04-25T03:36:05;8.30;99.90
5697;DHT22;2873;50.966;7.210;2023-04-25T03:38:31;8.30;99.90
5697;DHT22;2873;50.966;7.210;2023-04-25T03:40:57;8.30;99.90
5697;DHT22;2873;50.966;7.210;2023-04-25T03:43:22;8.40;99.90
5697;DHT22;2873;50.966;7.210;2023-04-25T03:45:48;8.30;99.90
5697;DHT22;2873;50.966;7.210;2023-04-25T03:48:13;8.30;99.90
5697;DHT22;2873;50.966;7.210;2023-04-25T03:50:39;8.30;99.90
5697;DHT22;2873;50.966;7.210;2023-04-25T03:53:04;8.30;99.90
5697;DHT22;2873;50.966;7.210;2023-04-25T03:55:30;8.40;99.90
5697;DHT22;2873;50.966;7.210;2023-04-25T03:57:57;8.40;99.90
5697;DHT22;2873;50.966;7.210;2023-04-25T04:00:23;8.40;99.90
5697;DHT22;2873;50.966;7.210;2023-04-25T04:02:49;8.40;99.90
5697;DHT22;2873;50.966;7.210;2023-04-25T04:05:15;8.40;99.90
5697;DHT22;2873;50.966;7.210;2023-04-25T04:07:40;8.50;99.90
5697;DHT22;2873;50.966;7.210;2023-04-25T04:10:08;8.40;99.90
5697;DHT22;2873;50.966;7.210;2023-04-25T04:12:34;8.40;99.90
5697;DHT22;2873;50.966;7.210;2023-04-25T04:15:00;8.50;99.90
5697;DHT22;2873;50.966;7.210;2023-04-25T04:17:26;8.40;99.90
5697;DHT22;2873;50.966;7.210;2023-04-25T04:19:51;8.50;99.90
5697;DHT22;2873;50.966;7.210;2023-04-25T04:22:17;8.40;99.90
5697;DHT22;2873;50.966;7.210;2023-04-25T04:24:42;8.40;99.90
5697;DHT22;2873;50.966;7.210;2023-04-25T04:27:11;8.40;99.90
5697;DHT22;2873;50.966;7.210;2023-04-25T04:29:38;8.40;99.90
5697;DHT22;2873;50.966;7.210;2023-04-25T04:32:03;8.40;99.90
5697;DHT22;2873;50.966;7.210;2023-04-25T04:34:30;8.40;99.90
5697;DHT22;2873;50.966;7.210;2023-04-25T04:36:56;8.50;99.90
5697;DHT22;2873;50.966;7.210;2023-04-25T04:39:22;8.50;99.90
5697;DHT22;2873;50.966;7.210;2023-04-25T04:41:48;8.40;99.90
5697;DHT22;2873;50.966;7.210;2023-04-25T04:44:14;8.40;99.90
5697;DHT22;2873;50.966;7.210;2023-04-25T04:46:40;8.40;99.90
5697;DHT22;2873;50.966;7.210;2023-04-25T04:49:09;8.40;99.90
5697;DHT22;2873;50.966;7.210;2023-04-25T04:51:34;8.40;99.90
5697;DHT22;2873;50.966;7.210;2023-04-25T04:54:00;8.40;99.90
5697;DHT22;2873;50.966;7.210;2023-04-25T04:56:28;8.40;99.90
5697;DHT22;2873;50.966;7.210;2023-04-25T04:58:56;8.50;99.90
5697;DHT22;2873;50.966;7.210;2023-04-25T05:01:22;8.50;99.90
5697;DHT22;2873;50.966;7.210;2023-04-25T05:03:47;8.60;99.90
5697;DHT22;2873;50.966;7.210;2023-04-25T05:06:13;8.60;99.90
5697;DHT22;2873;50.966;7.210;2023-04-25T05:08:38;8.60;99.90
5697;DHT22;2873;50.966;7.210;2023-04-25T05:11:04;8.60;99.90
5697;DHT22;2873;50.966;7.210;2023-04-25T05:13:29;8.60;99.90
5697;DHT22;2873;50.966;7.210;2023-04-25T05:15:55;8.70;99.90
5697;DHT22;2873;50.966;7.210;2023-04-25T05:18:21;8.70;99.90
5697;DHT22;2873;50.966;7.210;2023-04-25T05:20:46;8.70;99.90
5697;DHT22;2873;50.966;7.210;2023-04-25T05:23:12;8.80;99.90
5697;DHT22;2873;50.966;7.210;2023-04-25T05:25:37;8.80;99.90
5697;DHT22;2873;50.966;7.210;2023-04-25T05:28:03;8.80;99.90
5697;DHT22;2873;50.966;7.210;2023-04-25T05:30:29;8.80;99.90
5697;DHT22;2873;50.966;7.210;2023-04-25T05:32:54;8.80;99.90
5697;DHT22;2873;50.966;7.210;2023-04-25T05:35:20;8.80;99.90
5697;DHT22;2873;50.966;7.210;2023-04-25T05:37:45;8.90;99.90
5697;DHT22;2873;50.966;7.210;2023-04-25T05:40:11;8.80;99.90
5697;DHT22;2873;50.966;7.210;2023-04-25T05:42:37;8.90;99.90
5697;DHT22;2873;50.966;7.210;2023-04-25T05:45:03;8.80;99.90
5697;DHT22;2873;50.966;7.210;2023-04-25T05:47:28;8.80;99.90
5697;DHT22;2873;50.966;7.210;2023-04-25T05:49:54;8.80;99.90
5697;DHT22;2873;50.966;7.210;2023-04-25T05:52:19;8.80;99.90
5697;DHT22;2873;50.966;7.210;2023-04-25T05:54:45;8.90;99.90
5697;DHT22;2873;50.966;7.210;2023-04-25T05:57:24;9.00;99.90
5697;DHT22;2873;50.966;7.210;2023-04-25T05:59:50;9.10;99.90
5697;DHT22;2873;50.966;7.210;2023-04-25T06:02:16;9.10;99.90
5697;DHT22;2873;50.966;7.210;2023-04-25T06:04:42;9.20;99.90
5697;DHT22;2873;50.966;7.210;2023-04-25T06:07:08;9.20;99.90
5697;DHT22;2873;50.966;7.210;2023-04-25T06:09:34;9.20;99.90
5697;DHT22;2873;50.966;7.210;2023-04-25T06:11:59;9.30;99.90
5697;DHT22;2873;50.966;7.210;2023-04-25T06:14:26;9.20;99.90
5697;DHT22;2873;50.966;7.210;2023-04-25T06:16:52;9.30;99.90
5697;DHT22;2873;50.966;7.210;2023-04-25T06:19:17;9.30;99.90
5697;DHT22;2873;50.966;7.210;2023-04-25T06:21:44;9.40;99.90
5697;DHT22;2873;50.966;7.210;2023-04-25T06:24:09;9.50;99.90
5697;DHT22;2873;50.966;7.210;2023-04-25T06:26:35;9.50;99.90
5697;DHT22;2873;50.966;7.210;2023-04-25T06:29:01;9.50;99.90
5697;DHT22;2873;50.966;7.210;2023-04-25T06:31:26;9.50;99.90
5697;DHT22;2873;50.966;7.210;2023-04-25T06:33:52;9.60;99.90
5697;DHT22;2873;50.966;7.210;2023-04-25T06:36:20;9.70;99.90
5697;DHT22;2873;50.966;7.210;2023-04-25T06:38:50;9.80;99.90
5697;DHT22;2873;50.966;7.210;2023-04-25T06:41:16;9.90;99.90
5697;DHT22;2873;50.966;7.210;2023-04-25T06:43:42;9.90;99.90
5697;DHT22;2873;50.966;7.210;2023-04-25T06:46:07;9.90;99.90
5697;DHT22;2873;50.966;7.210;2023-04-25T06:48:33;10.00;99.90
5697;DHT22;2873;50.966;7.210;2023-04-25T06:50:59;10.00;99.90
5697;DHT22;2873;50.966;7.210;2023-04-25T06:53:24;10.10;99.90
5697;DHT22;2873;50.966;7.210;2023-04-25T06:55:50;10.10;99.90
5697;DHT22;2873;50.966;7.210;2023-04-25T06:58:15;10.20;99.90
5697;DHT22;2873;50.966;7.210;2023-04-25T07:00:41;10.20;99.90
5697;DHT22;2873;50.966;7.210;2023-04-25T07:03:07;10.30;99.90
5697;DHT22;2873;50.966;7.210;2023-04-25T07:05:32;10.20;99.90
5697;DHT22;2873;50.966;7.210;2023-04-25T07:07:58;10.30;99.90
5697;DHT22;2873;50.966;7.210;2023-04-25T07:10:23;10.30;99.90
5697;DHT22;2873;50.966;7.210;2023-04-25T07:12:49;10.40;99.90
5697;DHT22;2873;50.966;7.210;2023-04-25T07:15:15;10.40;99.90
5697;DHT22;2873;50.966;7.210;2023-04-25T07:17:41;10.50;99.90
5697;DHT22;2873;50.966;7.210;2023-04-25T07:20:07;10.60;99.90
5697;DHT22;2873;50.966;7.210;2023-04-25T07:22:34;10.60;99.90
5697;DHT22;2873;50.966;7.210;2023-04-25T07:25:00;10.70;99.90
5697;DHT22;2873;50.966;7.210;2023-04-25T07:27:25;10.80;99.90
5697;DHT22;2873;50.966;7.210;2023-04-25T07:29:51;10.90;99.90
5697;DHT22;2873;50.966;7.210;2023-04-25T07:32:16;11.00;99.90
5697;DHT22;2873;50.966;7.210;2023-04-25T07:34:42;11.00;99.90
5697;DHT22;2873;50.966;7.210;2023-04-25T07:37:07;11.10;99.90
5697;DHT22;2873;50.966;7.210;2023-04-25T07:39:33;11.20;99.90
5697;DHT22;2873;50.966;7.210;2023-04-25T07:41:59;11.30;99.90
5697;DHT22;2873;50.966;7.210;2023-04-25T07:44:25;11.40;99.90
5697;DHT22;2873;50.966;7.210;2023-04-25T07:46:51;11.40;99.90
5697;DHT22;2873;50.966;7.210;2023-04-25T07:49:16;11.50;99.90
5697;DHT22;2873;50.966;7.210;2023-04-25T07:51:42;11.50;99.90
5697;DHT22;2873;50.966;7.210;2023-04-25T07:54:09;11.50;99.90
5697;DHT22;2873;50.966;7.210;2023-04-25T07:56:35;11.50;99.90
5697;DHT22;2873;50.966;7.210;2023-04-25T07:59:00;11.60;99.90
5697;DHT22;2873;50.966;7.210;2023-04-25T08:01:26;11.50;99.90
5697;DHT22;2873;50.966;7.210;2023-04-25T08:03:52;11.30;99.90
5697;DHT22;2873;50.966;7.210;2023-04-25T08:06:18;11.20;99.90
5697;DHT22;2873;50.966;7.210;2023-04-25T08:08:43;11.20;99.90
5697;DHT22;2873;50.966;7.210;2023-04-25T08:11:09;11.20;99.90
5697;DHT22;2873;50.966;7.210;2023-04-25T08:13:35;11.20;99.90
5697;DHT22;2873;50.966;7.210;2023-04-25T08:16:01;11.30;99.90
5697;DHT22;2873;50.966;7.210;2023-04-25T08:18:26;11.30;99.90
5697;DHT22;2873;50.966;7.210;2023-04-25T08:20:52;11.20;99.90
5697;DHT22;2873;50.966;7.210;2023-04-25T08:23:17;11.30;99.90
5697;DHT22;2873;50.966;7.210;2023-04-25T08:25:43;11.40;99.90
5697;DHT22;2873;50.966;7.210;2023-04-25T08:28:09;11.50;99.90
5697;DHT22;2873;50.966;7.210;2023-04-25T08:30:34;11.60;99.90
5697;DHT22;2873;50.966;7.210;2023-04-25T08:33:00;11.80;99.90
5697;DHT22;2873;50.966;7.210;2023-04-25T08:35:25;11.90;99.90
5697;DHT22;2873;50.966;7.210;2023-04-25T08:37:51;11.90;99.90
5697;DHT22;2873;50.966;7.210;2023-04-25T08:40:17;12.00;99.90
5697;DHT22;2873;50.966;7.210;2023-04-25T08:42:42;11.80;99.90
5697;DHT22;2873;50.966;7.210;2023-04-25T08:45:09;11.70;99.90
5697;DHT22;2873;50.966;7.210;2023-04-25T08:47:35;11.70;99.90
5697;DHT22;2873;50.966;7.210;2023-04-25T08:50:02;11.60;99.90
5697;DHT22;2873;50.966;7.210;2023-04-25T08:52:32;11.50;99.90
5697;DHT22;2873;50.966;7.210;2023-04-25T08:54:58;11.50;99.90
5697;DHT22;2873;50.966;7.210;2023-04-25T08:57:26;11.40;99.90
5697;DHT22;2873;50.966;7.210;2023-04-25T08:59:52;11.30;99.90
5697;DHT22;2873;50.966;7.210;2023-04-25T09:02:19;11.20;99.90
5697;DHT22;2873;50.966;7.210;2023-04-25T09:04:46;11.20;99.90
5697;DHT22;2873;50.966;7.210;2023-04-25T09:07:11;11.10;99.90
5697;DHT22;2873;50.966;7.210;2023-04-25T09:09:37;11.10;99.90
5697;DHT22;2873;50.966;7.210;2023-04-25T09:12:03;11.00;99.90
5697;DHT22;2873;50.966;7.210;2023-04-25T09:14:28;11.10;99.90
5697;DHT22;2873;50.966;7.210;2023-04-25T09:16:57;11.10;99.90
5697;DHT22;2873;50.966;7.210;2023-04-25T09:19:34;11.20;99.90
5697;DHT22;2873;50.966;7.210;2023-04-25T09:22:02;11.20;99.90
5697;DHT22;2873;50.966;7.210;2023-04-25T09:24:42;11.10;99.90
5697;DHT22;2873;50.966;7.210;2023-04-25T09:27:10;11.20;99.90
5697;DHT22;2873;50.966;7.210;2023-04-25T09:29:38;11.30;99.90
5697;DHT22;2873;50.966;7.210;2023-04-25T09:32:21;11.30;99.90
5697;DHT22;2873;50.966;7.210;2023-04-25T09:34:55;11.40;99.90
5697;DHT22;2873;50.966;7.210;2023-04-25T09:37:28;11.70;99.90
5697;DHT22;2873;50.966;7.210;2023-04-25T09:39:56;11.90;99.90
5697;DHT22;2873;50.966;7.210;2023-04-25T09:42:23;12.00;99.90
5697;DHT22;2873;50.966;7.210;2023-04-25T09:44:52;12.10;99.90
5697;DHT22;2873;50.966;7.210;2023-04-25T09:47:18;12.10;99.90
5697;DHT22;2873;50.966;7.210;2023-04-25T09:49:46;12.30;99.90
5697;DHT22;2873;50.966;7.210;2023-04-25T09:52:17;12.30;99.90
5697;DHT22;2873;50.966;7.210;2023-04-25T09:54:45;12.20;99.90
5697;DHT22;2873;50.966;7.210;2023-04-25T09:59:50;12.20;99.90
5697;DHT22;2873;50.966;7.210;2023-04-25T10:02:19;12.20;99.90
5697;DHT22;2873;50.966;7.210;2023-04-25T10:04:48;12.30;99.90
5697;DHT22;2873;50.966;7.210;2023-04-25T10:07:14;12.40;99.90
5697;DHT22;2873;50.966;7.210;2023-04-25T10:09:40;12.50;99.90
5697;DHT22;2873;50.966;7.210;2023-04-25T10:12:07;12.70;99.90
5697;DHT22;2873;50.966;7.210;2023-04-25T10:14:33;12.80;99.90
5697;DHT22;2873;50.966;7.210;2023-04-25T10:17:00;12.80;99.90
5697;DHT22;2873;50.966;7.210;2023-04-25T10:19:27;12.90;99.90
5697;DHT22;2873;50.966;7.210;2023-04-25T10:24:35;12.90;99.90
5697;DHT22;2873;50.966;7.210;2023-04-25T10:27:01;12.80;99.90
5697;DHT22;2873;50.966;7.210;2023-04-25T10:29:27;12.70;99.90
5697;DHT22;2873;50.966;7.210;2023-04-25T10:31:53;12.60;99.90
5697;DHT22;2873;50.966;7.210;2023-04-25T10:34:23;12.60;99.90
5697;DHT22;2873;50.966;7.210;2023-04-25T10:36:52;12.60;99.90
5697;DHT22;2873;50.966;7.210;2023-04-25T10:39:25;12.60;99.90
5697;DHT22;2873;50.966;7.210;2023-04-25T10:41:58;12.70;99.90
5697;DHT22;2873;50.966;7.210;2023-04-25T10:44:28;12.90;99.90
5697;DHT22;2873;50.966;7.210;2023-04-25T10:46:58;13.20;99.90
5697;DHT22;2873;50.966;7.210;2023-04-25T10:49:37;13.30;99.90
5697;DHT22;2873;50.966;7.210;2023-04-25T10:52:25;13.60;99.90
5697;DHT22;2873;50.966;7.210;2023-04-25T10:57:37;13.80;99.90
5697;DHT22;2873;50.966;7.210;2023-04-25T11:00:14;13.80;99.90
5697;DHT22;2873;50.966;7.210;2023-04-25T11:02:42;13.70;99.90
5697;DHT22;2873;50.966;7.210;2023-04-25T11:05:09;13.40;99.90
5697;DHT22;2873;50.966;7.210;2023-04-25T11:07:45;13.40;99.90
5697;DHT22;2873;50.966;7.210;2023-04-25T11:10:14;13.30;99.90
5697;DHT22;2873;50.966;7.210;2023-04-25T11:12:40;13.20;99.90
5697;DHT22;2873;50.966;7.210;2023-04-25T11:15:06;13.20;99.90
5697;DHT22;2873;50.966;7.210;2023-04-25T11:17:33;13.00;99.90
5697;DHT22;2873;50.966;7.210;2023-04-25T11:19:59;12.90;99.90
5697;DHT22;2873;50.966;7.210;2023-04-25T11:22:26;12.90;99.90
5697;DHT22;2873;50.966;7.210;2023-04-25T11:24:52;12.80;99.90
5697;DHT22;2873;50.966;7.210;2023-04-25T11:27:18;12.90;99.90
5697;DHT22;2873;50.966;7.210;2023-04-25T11:29:43;12.90;99.90
5697;DHT22;2873;50.966;7.210;2023-04-25T11:32:09;12.90;99.90
5697;DHT22;2873;50.966;7.210;2023-04-25T11:34:35;13.10;99.90
5697;DHT22;2873;50.966;7.210;2023-04-25T11:37:01;13.30;99.90
5697;DHT22;2873;50.966;7.210;2023-04-25T11:39:28;13.50;99.90
5697;DHT22;2873;50.966;7.210;2023-04-25T11:41:54;13.70;99.90
5697;DHT22;2873;50.966;7.210;2023-04-25T11:44:21;14.10;99.90
5697;DHT22;2873;50.966;7.210;2023-04-25T11:46:46;14.20;99.90
5697;DHT22;2873;50.966;7.210;2023-04-25T11:49:13;14.30;99.90
5697;DHT22;2873;50.966;7.210;2023-04-25T11:54:05;14.40;99.90
5697;DHT22;2873;50.966;7.210;2023-04-25T11:56:31;14.10;99.90
5697;DHT22;2873;50.966;7.210;2023-04-25T11:59:02;14.20;99.90
5697;DHT22;2873;50.966;7.210;2023-04-25T12:01:29;14.20;99.90
5697;DHT22;2873;50.966;7.210;2023-04-25T12:03:56;14.50;99.90
5697;DHT22;2873;50.966;7.210;2023-04-25T12:06:25;14.80;99.90
5697;DHT22;2873;50.966;7.210;2023-04-25T12:09:04;14.90;99.90
5697;DHT22;2873;50.966;7.210;2023-04-25T12:11:30;15.20;99.50
5697;DHT22;2873;50.966;7.210;2023-04-25T12:14:04;15.30;98.90
5697;DHT22;2873;50.966;7.210;2023-04-25T12:16:40;15.40;98.40
5697;DHT22;2873;50.966;7.210;2023-04-25T12:19:06;15.50;97.60
5697;DHT22;2873;50.966;7.210;2023-04-25T12:21:32;15.60;97.50
5697;DHT22;2873;50.966;7.210;2023-04-25T12:24:09;15.80;97.20
5697;DHT22;2873;50.966;7.210;2023-04-25T12:27:00;15.80;97.10
5697;DHT22;2873;50.966;7.210;2023-04-25T12:29:28;16.10;96.70
5697;DHT22;2873;50.966;7.210;2023-04-25T12:31:55;16.10;94.90
5697;DHT22;2873;50.966;7.210;2023-04-25T12:34:21;16.20;95.60
5697;DHT22;2873;50.966;7.210;2023-04-25T12:36:47;16.40;96.80
5697;DHT22;2873;50.966;7.210;2023-04-25T12:39:16;16.60;96.50
5697;DHT22;2873;50.966;7.210;2023-04-25T12:41:43;16.70;95.10
5697;DHT22;2873;50.966;7.210;2023-04-25T12:44:08;16.70;94.00
5697;DHT22;2873;50.966;7.210;2023-04-25T12:46:34;16.40;92.90
5697;DHT22;2873;50.966;7.210;2023-04-25T12:48:59;16.30;93.20
5697;DHT22;2873;50.966;7.210;2023-04-25T12:51:25;16.40;93.70
5697;DHT22;2873;50.966;7.210;2023-04-25T12:53:53;16.30;94.20
5697;DHT22;2873;50.966;7.210;2023-04-25T12:56:18;16.10;93.80
5697;DHT22;2873;50.966;7.210;2023-04-25T12:58:44;16.10;93.60
5697;DHT22;2873;50.966;7.210;2023-04-25T13:01:09;16.10;93.30
5697;DHT22;2873;50.966;7.210;2023-04-25T13:03:35;16.00;92.90
5697;DHT22;2873;50.966;7.210;2023-04-25T13:06:01;16.00;93.30
5697;DHT22;2873;50.966;7.210;2023-04-25T13:08:26;16.00;92.30
5697;DHT22;2873;50.966;7.210;2023-04-25T13:10:52;15.80;92.00
5697;DHT22;2873;50.966;7.210;2023-04-25T13:13:18;15.80;92.90
5697;DHT22;2873;50.966;7.210;2023-04-25T13:15:43;16.00;94.60
5697;DHT22;2873;50.966;7.210;2023-04-25T13:18:09;15.80;95.30
5697;DHT22;2873;50.966;7.210;2023-04-25T13:20:34;15.80;95.70
5697;DHT22;2873;50.966;7.210;2023-04-25T13:23:00;16.00;96.50
5697;DHT22;2873;50.966;7.210;2023-04-25T13:25:26;15.70;96.30
5697;DHT22;2873;50.966;7.210;2023-04-25T13:27:52;15.50;96.60
5697;DHT22;2873;50.966;7.210;2023-04-25T13:30:17;15.40;97.20
5697;DHT22;2873;50.966;7.210;2023-04-25T13:32:43;15.40;97.70
5697;DHT22;2873;50.966;7.210;2023-04-25T13:35:11;15.40;98.20
5697;DHT22;2873;50.966;7.210;2023-04-25T13:37:37;15.40;98.10
5697;DHT22;2873;50.966;7.210;2023-04-25T13:40:05;15.10;97.80
5697;DHT22;2873;50.966;7.210;2023-04-25T13:42:32;15.20;98.00
5697;DHT22;2873;50.966;7.210;2023-04-25T13:44:57;15.20;98.30
5697;DHT22;2873;50.966;7.210;2023-04-25T13:47:23;15.20;99.40
5697;DHT22;2873;50.966;7.210;2023-04-25T13:49:50;15.20;99.60
5697;DHT22;2873;50.966;7.210;2023-04-25T13:52:15;15.10;99.90
5697;DHT22;2873;50.966;7.210;2023-04-25T13:54:41;15.10;99.90
5697;DHT22;2873;50.966;7.210;2023-04-25T13:57:07;15.20;99.90
5697;DHT22;2873;50.966;7.210;2023-04-25T13:59:33;15.00;99.90
5697;DHT22;2873;50.966;7.210;2023-04-25T14:01:58;15.10;99.90
5697;DHT22;2873;50.966;7.210;2023-04-25T14:04:24;15.00;99.30
5697;DHT22;2873;50.966;7.210;2023-04-25T14:06:50;15.30;99.90
5697;DHT22;2873;50.966;7.210;2023-04-25T14:09:17;15.50;99.90
5697;DHT22;2873;50.966;7.210;2023-04-25T14:11:42;15.40;99.80
5697;DHT22;2873;50.966;7.210;2023-04-25T14:14:08;15.60;99.90
5697;DHT22;2873;50.966;7.210;2023-04-25T14:16:34;15.80;99.90
5697;DHT22;2873;50.966;7.210;2023-04-25T14:19:00;15.90;99.70
5697;DHT22;2873;50.966;7.210;2023-04-25T14:21:27;16.10;99.80
5697;DHT22;2873;50.966;7.210;2023-04-25T14:23:53;16.30;98.70
5697;DHT22;2873;50.966;7.210;2023-04-25T14:26:20;16.40;96.60
5697;DHT22;2873;50.966;7.210;2023-04-25T14:28:45;16.30;96.20
5697;DHT22;2873;50.966;7.210;2023-04-25T14:31:11;16.20;96.10
5697;DHT22;2873;50.966;7.210;2023-04-25T14:33:37;16.30;96.50
5697;DHT22;2873;50.966;7.210;2023-04-25T14:36:05;16.30;96.60
5697;DHT22;2873;50.966;7.210;2023-04-25T14:38:30;16.00;97.30
5697;DHT22;2873;50.966;7.210;2023-04-25T14:40:56;15.90;97.20
5697;DHT22;2873;50.966;7.210;2023-04-25T14:43:21;15.90;97.60
5697;DHT22;2873;50.966;7.210;2023-04-25T14:45:47;15.70;97.70
5697;DHT22;2873;50.966;7.210;2023-04-25T14:48:13;15.70;98.00
5697;DHT22;2873;50.966;7.210;2023-04-25T14:50:38;15.70;98.00
5697;DHT22;2873;50.966;7.210;2023-04-25T14:53:04;15.40;97.80
5697;DHT22;2873;50.966;7.210;2023-04-25T14:55:30;15.40;98.70
5697;DHT22;2873;50.966;7.210;2023-04-25T14:57:55;15.70;99.10
5697;DHT22;2873;50.966;7.210;2023-04-25T15:00:22;15.70;98.10
5697;DHT22;2873;50.966;7.210;2023-04-25T15:02:48;15.80;97.80
5697;DHT22;2873;50.966;7.210;2023-04-25T15:05:14;15.80;95.40
5697;DHT22;2873;50.966;7.210;2023-04-25T15:07:40;15.90;94.70
5697;DHT22;2873;50.966;7.210;2023-04-25T15:10:07;15.90;95.20
5697;DHT22;2873;50.966;7.210;2023-04-25T15:12:42;15.90;96.60
5697;DHT22;2873;50.966;7.210;2023-04-25T15:15:08;15.80;96.80
5697;DHT22;2873;50.966;7.210;2023-04-25T15:17:38;15.60;98.40
5697;DHT22;2873;50.966;7.210;2023-04-25T15:20:05;15.40;98.90
5697;DHT22;2873;50.966;7.210;2023-04-25T15:22:31;15.30;99.10
5697;DHT22;2873;50.966;7.210;2023-04-25T15:24:57;15.20;99.40
5697;DHT22;2873;50.966;7.210;2023-04-25T15:27:22;15.10;99.90
5697;DHT22;2873;50.966;7.210;2023-04-25T15:29:48;15.30;99.90
5697;DHT22;2873;50.966;7.210;2023-04-25T15:32:14;15.40;99.90
5697;DHT22;2873;50.966;7.210;2023-04-25T15:34:40;15.50;99.90
5697;DHT22;2873;50.966;7.210;2023-04-25T15:37:06;15.50;99.60
5697;DHT22;2873;50.966;7.210;2023-04-25T15:39:32;15.50;99.30
5697;DHT22;2873;50.966;7.210;2023-04-25T15:41:57;15.50;98.90
5697;DHT22;2873;50.966;7.210;2023-04-25T15:44:24;15.50;97.50
5697;DHT22;2873;50.966;7.210;2023-04-25T15:46:49;15.50;96.70
5697;DHT22;2873;50.966;7.210;2023-04-25T15:49:15;15.50;97.10
5697;DHT22;2873;50.966;7.210;2023-04-25T15:51:40;15.30;96.80
5697;DHT22;2873;50.966;7.210;2023-04-25T15:54:06;15.30;97.60
5697;DHT22;2873;50.966;7.210;2023-04-25T15:56:32;15.20;97.50
5697;DHT22;2873;50.966;7.210;2023-04-25T15:58:58;15.30;97.40
5697;DHT22;2873;50.966;7.210;2023-04-25T16:01:23;15.10;97.40
5697;DHT22;2873;50.966;7.210;2023-04-25T16:03:51;15.00;97.50
5697;DHT22;2873;50.966;7.210;2023-04-25T16:06:17;15.00;97.50
5697;DHT22;2873;50.966;7.210;2023-04-25T16:08:42;14.90;97.50
5697;DHT22;2873;50.966;7.210;2023-04-25T16:11:08;14.90;97.70
5697;DHT22;2873;50.966;7.210;2023-04-25T16:13:34;14.80;97.90
5697;DHT22;2873;50.966;7.210;2023-04-25T16:16:00;14.60;97.70